Weather History for Grand Marais Airport, MN

Change the Weather History Date:

Thursday, January 17, 2013

  Actual Average Record
Temperature  
Mean Temperature -8 °F -  
Max Temperature -2 °F 13 °F 35 °F (1999)
Min Temperature -14 °F 0 °F -25 °F (2005)
Degree Days  
Heating Degree Days 73    
Moisture  
Dew Point -20 °F    
Average Humidity 60    
Maximum Humidity 77    
Minimum Humidity 38    
Precipitation  
Precipitation 0.00 in - - ()
Sea Level Pressure  
Sea Level Pressure 30.12 in    
Wind  
Wind Speed 8 mph (WNW)    
Max Wind Speed 16 mph    
Max Gust Speed 25 mph    
Visibility 10 miles    
Events Snow    
Averages and records for this station are not official NWS values.
T = Trace of Precipitation, MM = Missing Value Source: NWS Daily Summary

Daily Weather History Graph

Daily Weather History Graph

Search for Another Location

Airport:

Trip Planner

Search our weather history database for the weather conditions in past years. The results will help you decide how hot, cold, wet, or windy it might be!

Date:

Astronomy

Jan. 17, 2013 Rise Set
Actual Time 7:44 AM CST 4:39 PM CST
Civil Twilight 7:09 AM CST 5:14 PM CST
Nautical Twilight 6:31 AM CST 5:52 PM CST
Astronomical Twilight 5:54 AM CST 6:29 PM CST
Moon 10:18 AM CST (1/17) No Moon Set
Length of Visible Light 10h 04m
Length of Day
8h 55m
Waxing Crescent, 38% of the Moon is Illuminated
Jan 17
Waxing Crescent
Jan 18
First Quarter
Jan 26
Full
Feb 3
Last Quarter
Feb 10
New

Hourly Weather History & Observations

Time (CST) Temp. Windchill Dew Point Humidity Pressure Visibility Wind Dir Wind Speed Gust Speed Precip Events Conditions
12:01 AM -13.0 °F -30.0 °F -20.2 °F 70% 30.03 in 10.0 mi NW 8.1 mph - N/A   Scattered Clouds
12:21 AM -13.0 °F -27.0 °F -20.2 °F 70% 30.06 in 10.0 mi NW 5.8 mph - N/A   Mostly Cloudy
12:41 AM -13.0 °F -30.0 °F -20.2 °F 70% 30.06 in 10.0 mi NW 8.1 mph - N/A   Scattered Clouds
1:01 AM -14.8 °F -29.1 °F -20.2 °F 77% 30.07 in 10.0 mi NW 5.8 mph - N/A   Clear
1:21 AM -14.8 °F -27.2 °F -22.0 °F 70% 30.07 in 10.0 mi NW 4.6 mph - N/A   Clear
1:41 AM -14.8 °F -30.8 °F -22.0 °F 70% 30.07 in 10.0 mi WNW 6.9 mph - N/A   Scattered Clouds
2:01 AM -14.8 °F -30.8 °F -23.8 °F 64% 30.08 in 10.0 mi WNW 6.9 mph - N/A   Clear
2:21 AM -14.8 °F -29.1 °F -23.8 °F 64% 30.09 in 10.0 mi WNW 5.8 mph - N/A   Clear
2:41 AM -14.8 °F -30.8 °F -23.8 °F 64% 30.09 in 10.0 mi WNW 6.9 mph - N/A   Clear
3:01 AM -14.8 °F -32.2 °F -23.8 °F 64% 30.08 in 10.0 mi WNW 8.1 mph - N/A   Clear
3:21 AM -14.8 °F -34.6 °F -23.8 °F 64% 30.08 in 10.0 mi WNW 10.4 mph - N/A   Scattered Clouds
3:41 AM -14.8 °F -35.6 °F -23.8 °F 64% 30.07 in 10.0 mi NW 11.5 mph 17.3 mph N/A   Mostly Cloudy
4:01 AM -14.8 °F -34.6 °F -23.8 °F 64% 30.08 in 10.0 mi WNW 10.4 mph 16.1 mph N/A   Overcast
4:21 AM -14.8 °F -34.6 °F -23.8 °F 64% 30.07 in 10.0 mi WNW 10.4 mph 17.3 mph N/A   Overcast
4:41 AM -14.8 °F -30.8 °F -23.8 °F 64% 30.08 in 10.0 mi WNW 6.9 mph - N/A   Overcast
5:01 AM -14.8 °F -33.5 °F -23.8 °F 64% 30.08 in 10.0 mi WNW 9.2 mph - N/A   Mostly Cloudy
5:21 AM -14.8 °F -33.5 °F -25.6 °F 58% 30.08 in 10.0 mi WNW 9.2 mph - N/A   Scattered Clouds
5:41 AM -14.8 °F -33.5 °F -25.6 °F 58% 30.08 in 10.0 mi WNW 9.2 mph 17.3 mph N/A   Scattered Clouds
6:01 AM -14.8 °F -34.6 °F -23.8 °F 64% 30.07 in 10.0 mi WNW 10.4 mph 19.6 mph N/A   Mostly Cloudy
6:21 AM -14.8 °F -34.6 °F -23.8 °F 64% 30.08 in 10.0 mi WNW 10.4 mph 19.6 mph N/A   Overcast
6:41 AM -14.8 °F -36.6 °F -22.0 °F 70% 30.08 in 10.0 mi WNW 12.7 mph 19.6 mph N/A   Mostly Cloudy
7:01 AM -14.8 °F -36.6 °F -22.0 °F 70% 30.08 in 10.0 mi WNW 12.7 mph 21.9 mph N/A   Mostly Cloudy
7:21 AM -14.8 °F -33.5 °F -23.8 °F 64% 30.08 in 10.0 mi WNW 9.2 mph 19.6 mph N/A   Mostly Cloudy
7:41 AM -14.8 °F -34.6 °F -23.8 °F 64% 30.09 in 10.0 mi WNW 10.4 mph 19.6 mph N/A   Scattered Clouds
8:01 AM -14.8 °F -32.2 °F -25.6 °F 58% 30.10 in 10.0 mi WNW 8.1 mph 17.3 mph N/A   Clear
8:21 AM -14.8 °F -34.6 °F -23.8 °F 64% 30.11 in 10.0 mi West 10.4 mph - N/A   Clear
9:01 AM -11.2 °F -32.1 °F -23.8 °F 54% 30.11 in 7.0 mi WNW 12.7 mph 23.0 mph N/A   Clear
9:21 AM -11.2 °F -33.7 °F -23.8 °F 54% 30.13 in 7.0 mi WNW 15.0 mph 21.9 mph N/A   Clear
10:01 AM -9.4 °F -24.3 °F -23.8 °F 49% 30.14 in 10.0 mi NW 6.9 mph 16.1 mph N/A   Clear
10:21 AM -7.6 °F -22.1 °F -23.8 °F 45% 30.15 in 10.0 mi NW 6.9 mph - N/A   Clear
10:41 AM -7.6 °F -22.1 °F -22.0 °F 50% 30.15 in 10.0 mi WNW 6.9 mph 16.1 mph N/A   Clear
11:01 AM -5.8 °F -22.4 °F -23.8 °F 42% 30.15 in 10.0 mi WNW 9.2 mph 18.4 mph N/A   Clear
11:21 AM -5.8 °F -24.4 °F -23.8 °F 42% 30.14 in 10.0 mi WNW 11.5 mph 20.7 mph N/A   Clear
11:41 AM -4.0 °F -22.1 °F -23.8 °F 38% 30.14 in 10.0 mi West 11.5 mph 17.3 mph N/A   Clear
12:01 PM -4.0 °F -21.2 °F -23.8 °F 38% 30.14 in 10.0 mi WNW 10.4 mph 19.6 mph N/A   Clear
1:10 PM -2.2 °F -18.0 °F -20.2 °F 42% 30.13 in 10.0 mi WNW 9.2 mph 23.0 mph N/A Snow Light Snow
1:14 PM -2.2 °F -18.0 °F -20.2 °F 42% 30.12 in 10.0 mi West 9.2 mph 20.7 mph N/A Snow Light Snow
1:33 PM -2.2 °F -21.5 °F -18.4 °F 46% 30.12 in 10.0 mi West 13.8 mph 19.6 mph N/A   Clear
1:54 PM -2.2 °F -20.7 °F -18.4 °F 46% 30.13 in 10.0 mi WNW 12.7 mph 21.9 mph N/A Snow Light Snow
2:14 PM -2.2 °F -18.9 °F -18.4 °F 46% 30.13 in 10.0 mi West 10.4 mph 20.7 mph N/A   Clear
2:33 PM -2.2 °F -22.9 °F -18.4 °F 46% 30.13 in 10.0 mi West 16.1 mph 24.2 mph N/A Snow Light Snow
2:54 PM -2.2 °F -20.7 °F -16.6 °F 50% 30.13 in 10.0 mi West 12.7 mph 19.6 mph N/A   Clear
3:14 PM -2.2 °F -19.9 °F -16.6 °F 50% 30.13 in 10.0 mi West 11.5 mph 18.4 mph N/A   Clear
3:33 PM -2.2 °F -20.7 °F -16.6 °F 50% 30.14 in 10.0 mi WNW 12.7 mph 19.6 mph N/A   Clear
3:53 PM -2.2 °F -15.6 °F -16.6 °F 50% 30.15 in 10.0 mi West 6.9 mph - N/A   Clear
4:13 PM -4.0 °F -22.1 °F -16.6 °F 55% 30.15 in 10.0 mi West 11.5 mph 25.3 mph N/A   Clear
4:33 PM -4.0 °F -22.1 °F -16.6 °F 55% 30.16 in 10.0 mi West 11.5 mph 21.9 mph N/A   Clear
4:54 PM -5.8 °F -21.2 °F -16.6 °F 60% 30.16 in 10.0 mi West 8.1 mph 17.3 mph N/A   Clear
5:14 PM -5.8 °F -19.9 °F -16.6 °F 60% 30.17 in 10.0 mi West 6.9 mph - N/A   Clear
5:33 PM -5.8 °F -19.9 °F -16.6 °F 60% 30.16 in 10.0 mi West 6.9 mph - N/A   Clear
5:53 PM -7.6 °F -16.5 °F -16.6 °F 65% 30.16 in 10.0 mi West 3.5 mph - N/A   Scattered Clouds
6:14 PM -7.6 °F -23.4 °F -16.6 °F 65% 30.16 in 10.0 mi West 8.1 mph - N/A   Clear
6:33 PM -7.6 °F -23.4 °F -16.6 °F 65% 30.17 in 10.0 mi West 8.1 mph - N/A   Clear
6:53 PM -7.6 °F -20.6 °F -16.6 °F 65% 30.17 in 10.0 mi West 5.8 mph - N/A   Clear
7:14 PM -7.6 °F -22.1 °F -16.6 °F 65% 30.17 in 10.0 mi West 6.9 mph - N/A   Clear
7:34 PM -7.6 °F -23.4 °F -16.6 °F 65% 30.16 in 10.0 mi West 8.1 mph - N/A   Clear
7:53 PM -7.6 °F -22.1 °F -16.6 °F 65% 30.16 in 10.0 mi West 6.9 mph - N/A   Clear
8:14 PM -7.6 °F -23.4 °F -14.8 °F 71% 30.16 in 10.0 mi West 8.1 mph - N/A   Clear
8:54 PM -7.6 °F -20.6 °F -14.8 °F 71% 30.16 in 10.0 mi West 5.8 mph - N/A   Scattered Clouds
9:14 PM -7.6 °F -18.8 °F -14.8 °F 71% 30.16 in 10.0 mi West 4.6 mph - N/A   Clear
9:34 PM -9.4 °F -18.6 °F -16.6 °F 71% 30.17 in 10.0 mi SW 3.5 mph - N/A   Clear
9:54 PM -9.4 °F -20.9 °F -16.6 °F 71% 30.17 in 10.0 mi West 4.6 mph - N/A   Clear
10:13 PM -9.4 °F -20.9 °F -16.6 °F 71% 30.17 in 10.0 mi WNW 4.6 mph - N/A   Scattered Clouds
10:34 PM -9.4 °F -22.7 °F -16.6 °F 71% 30.16 in 10.0 mi WNW 5.8 mph - N/A   Clear
10:53 PM -9.4 °F -24.3 °F -16.6 °F 71% 30.16 in 10.0 mi NW 6.9 mph - N/A   Clear
11:13 PM -9.4 °F -22.7 °F -16.6 °F 71% 30.16 in 10.0 mi NW 5.8 mph - N/A   Scattered Clouds
11:33 PM -9.4 °F -24.3 °F -16.6 °F 71% 30.14 in 10.0 mi NW 6.9 mph - N/A   Clear
11:54 PM -9.4 °F -25.6 °F -16.6 °F 71% 30.14 in 10.0 mi NW 8.1 mph - N/A   Clear